Time;durP1;ratioP1;P1;durP2;ratioP2;P2;SDS_P1;SDS_P2;PMS_P1;PMS_P2;Temp;Humidity;BMP_temperature;BMP_pressure;BME280_temperature;BME280_humidity;BME280_pressure;Samples;Min_cycle;Max_cycle;Signal;HPM_P1;HPM_P2
2021/09/18 00:01:42;;;;;;;9.73;3.05;;;17.40;99.90;;;;;;6182396;23;20032;-76
2021/09/18 00:04:09;;;;;;;6.78;3.05;;;17.40;99.90;;;;;;6182089;23;20508;-76
2021/09/18 00:06:37;;;;;;;12.90;3.28;;;17.40;99.90;;;;;;6182692;23;20021;-75
2021/09/18 00:09:04;;;;;;;7.25;3.28;;;17.40;99.90;;;;;;6182686;23;20318;-76
2021/09/18 00:11:31;;;;;;;9.55;3.95;;;17.40;99.90;;;;;;6181984;23;20021;-76
2021/09/18 00:13:58;;;;;;;8.80;3.70;;;17.40;99.90;;;;;;6182917;23;21392;-77
2021/09/18 00:16:26;;;;;;;10.43;3.75;;;17.40;99.90;;;;;;6181647;23;20049;-76
2021/09/18 00:18:53;;;;;;;12.43;3.22;;;17.40;99.90;;;;;;6182682;23;20017;-76
2021/09/18 00:21:20;;;;;;;9.57;3.80;;;17.40;99.90;;;;;;6181371;23;20021;-76
2021/09/18 00:23:47;;;;;;;10.38;3.45;;;17.40;99.90;;;;;;6182796;23;20017;-76
2021/09/18 00:26:14;;;;;;;12.75;3.30;;;17.40;99.90;;;;;;6181945;23;20021;-76
2021/09/18 00:28:41;;;;;;;12.30;4.53;;;17.40;99.90;;;;;;6182981;23;20333;-76
2021/09/18 00:31:08;;;;;;;9.57;3.85;;;17.40;99.90;;;;;;6181739;23;20028;-76
2021/09/18 00:33:35;;;;;;;9.43;4.10;;;17.40;99.90;;;;;;6182651;23;20024;-76
2021/09/18 00:36:02;;;;;;;7.43;4.07;;;17.40;99.90;;;;;;6183051;23;20024;-76
2021/09/18 00:38:29;;;;;;;9.80;3.97;;;17.30;99.90;;;;;;6181522;23;20023;-76
2021/09/18 00:40:57;;;;;;;7.88;4.25;;;17.30;99.90;;;;;;6182639;23;20021;-76
2021/09/18 00:43:25;;;;;;;8.65;4.43;;;17.30;99.90;;;;;;6181403;23;20124;-76
2021/09/18 00:45:52;;;;;;;10.10;4.30;;;17.30;99.90;;;;;;6182667;23;20021;-76
2021/09/18 00:48:19;;;;;;;11.02;4.47;;;17.30;99.90;;;;;;6182221;23;20035;-76
2021/09/18 00:50:46;;;;;;;9.93;4.50;;;17.30;99.90;;;;;;6182783;23;20021;-76
2021/09/18 00:53:14;;;;;;;13.43;5.20;;;17.30;99.90;;;;;;6181970;23;20021;-75
2021/09/18 00:55:42;;;;;;;10.30;4.53;;;17.30;99.90;;;;;;6181962;23;20072;-76
2021/09/18 00:58:10;;;;;;;10.68;4.93;;;17.30;99.90;;;;;;6181457;23;20021;-77
2021/09/18 01:00:37;;;;;;;8.73;4.70;;;17.20;99.90;;;;;;6182735;23;20029;-75
2021/09/18 01:03:04;;;;;;;7.38;4.28;;;17.30;99.90;;;;;;6181541;23;20083;-77
2021/09/18 01:05:32;;;;;;;11.02;5.05;;;17.30;99.90;;;;;;6182537;23;20017;-76
2021/09/18 01:08:00;;;;;;;9.75;4.10;;;17.30;99.90;;;;;;6182709;23;20023;-76
2021/09/18 01:10:28;;;;;;;6.70;3.97;;;17.30;99.90;;;;;;6181733;23;20100;-76
2021/09/18 01:13:07;;;;;;;7.70;3.85;;;17.30;99.90;;;;;;6183638;23;20027;-76
2021/09/18 01:15:36;;;;;;;6.82;3.47;;;17.20;99.90;;;;;;6183891;23;20291;-76
2021/09/18 01:18:04;;;;;;;7.22;3.30;;;17.20;99.90;;;;;;6184455;23;20338;-76
2021/09/18 01:20:32;;;;;;;5.60;3.28;;;17.20;99.90;;;;;;6183792;23;20025;-76
2021/09/18 01:23:02;;;;;;;11.10;4.13;;;17.20;99.90;;;;;;6184700;23;20023;-76
2021/09/18 01:25:32;;;;;;;9.27;4.28;;;17.20;99.90;;;;;;6183171;23;20089;-76
2021/09/18 01:27:59;;;;;;;10.40;5.18;;;17.20;99.90;;;;;;6184906;23;20149;-76
2021/09/18 01:30:29;;;;;;;7.35;4.78;;;17.20;99.90;;;;;;6183587;23;20016;-76
2021/09/18 01:32:57;;;;;;;8.43;4.60;;;17.20;99.90;;;;;;6184126;23;20017;-76
2021/09/18 01:35:24;;;;;;;10.35;5.70;;;17.20;99.90;;;;;;6183430;23;20757;-75
2021/09/18 01:37:52;;;;;;;8.40;5.32;;;17.20;99.90;;;;;;6184608;23;20016;-75
2021/09/18 01:40:22;;;;;;;10.68;4.95;;;17.20;99.90;;;;;;6183600;23;20096;-76
2021/09/18 01:42:49;;;;;;;6.72;4.90;;;17.20;99.90;;;;;;6184051;23;20024;-76
2021/09/18 01:45:17;;;;;;;11.95;4.93;;;17.20;99.90;;;;;;6183395;23;20021;-76
2021/09/18 01:47:51;;;;;;;8.52;4.50;;;17.20;99.90;;;;;;6184431;23;20028;-76
2021/09/18 01:50:34;;;;;;;6.72;4.60;;;17.20;99.90;;;;;;6183294;23;20041;-76
2021/09/18 01:53:03;;;;;;;10.73;4.28;;;17.20;99.90;;;;;;6183916;23;20017;-76
2021/09/18 01:55:32;;;;;;;9.70;4.60;;;17.20;99.90;;;;;;6183336;23;20311;-76
2021/09/18 01:58:00;;;;;;;6.13;4.13;;;17.20;99.90;;;;;;6184553;23;20020;-75
2021/09/18 02:00:28;;;;;;;8.32;3.80;;;17.10;99.90;;;;;;6183104;23;20029;-76
2021/09/18 02:02:55;;;;;;;6.25;3.75;;;17.10;99.90;;;;;;6184091;23;20422;-75
2021/09/18 02:05:26;;;;;;;5.78;3.70;;;17.10;99.90;;;;;;6183484;23;20448;-76
2021/09/18 02:07:54;;;;;;;6.38;3.80;;;17.10;99.90;;;;;;6183972;23;20334;-76
2021/09/18 02:10:24;;;;;;;7.18;4.35;;;17.10;99.90;;;;;;6183030;23;20096;-76
2021/09/18 02:12:52;;;;;;;9.82;4.32;;;17.10;99.90;;;;;;6184038;23;20017;-76
2021/09/18 02:15:21;;;;;;;7.40;4.55;;;17.10;99.90;;;;;;6182868;23;20080;-76
2021/09/18 02:17:48;;;;;;;11.25;4.55;;;17.10;99.90;;;;;;6184163;23;20044;-75
2021/09/18 02:20:19;;;;;;;7.45;4.75;;;17.10;99.90;;;;;;6183411;23;20654;-76
2021/09/18 02:22:46;;;;;;;11.60;4.28;;;17.10;99.90;;;;;;6183819;23;20025;-76
2021/09/18 02:25:15;;;;;;;7.32;4.53;;;17.10;99.90;;;;;;6183332;23;20088;-76
2021/09/18 02:27:42;;;;;;;9.80;4.53;;;17.10;99.90;;;;;;6183691;23;20017;-76
2021/09/18 02:30:13;;;;;;;9.90;4.63;;;17.10;99.90;;;;;;6183109;23;20017;-76
2021/09/18 02:32:40;;;;;;;5.68;4.07;;;17.10;99.90;;;;;;6184061;23;20017;-76
2021/09/18 02:35:10;;;;;;;6.70;4.03;;;17.10;99.90;;;;;;6182732;23;20067;-76
2021/09/18 02:37:38;;;;;;;7.63;4.25;;;17.10;99.90;;;;;;6183924;23;20013;-76
2021/09/18 02:40:08;;;;;;;6.60;3.60;;;17.10;99.90;;;;;;6183145;23;20025;-76
2021/09/18 02:42:41;;;;;;;9.57;3.55;;;17.10;99.90;;;;;;6183904;23;20025;-76
2021/09/18 02:45:09;;;;;;;6.18;4.00;;;17.10;99.90;;;;;;6182692;23;20021;-75
2021/09/18 02:47:36;;;;;;;7.40;3.83;;;17.10;99.90;;;;;;6183630;23;20037;-76
2021/09/18 02:50:05;;;;;;;6.45;4.03;;;17.10;99.90;;;;;;6183781;23;20521;-75
2021/09/18 02:52:32;;;;;;;6.68;4.30;;;17.10;99.90;;;;;;6183098;23;20029;-76
2021/09/18 02:55:00;;;;;;;10.43;4.13;;;17.10;99.90;;;;;;6184012;23;20071;-76
2021/09/18 02:57:27;;;;;;;8.73;4.90;;;17.10;99.90;;;;;;6182920;23;20028;-75
2021/09/18 02:59:54;;;;;;;8.02;3.92;;;17.10;99.90;;;;;;6184047;23;20024;-75
2021/09/18 03:02:21;;;;;;;8.55;4.78;;;17.10;99.90;;;;;;6182639;23;20349;-76
2021/09/18 03:04:49;;;;;;;8.68;4.85;;;17.10;99.90;;;;;;6183607;23;20342;-76
2021/09/18 03:07:16;;;;;;;8.20;4.72;;;17.10;99.90;;;;;;6182555;23;20084;-76
2021/09/18 03:09:43;;;;;;;7.13;4.80;;;17.10;99.90;;;;;;6183125;23;20017;-75
2021/09/18 03:12:10;;;;;;;6.32;4.05;;;17.10;99.90;;;;;;6182693;23;20290;-76
2021/09/18 03:14:37;;;;;;;5.07;3.95;;;17.00;99.90;;;;;;6183678;23;20508;-76
2021/09/18 03:17:04;;;;;;;8.93;3.97;;;17.00;99.90;;;;;;6182507;23;20031;-77
2021/09/18 03:19:31;;;;;;;9.02;4.30;;;17.00;99.90;;;;;;6183256;23;20017;-75
2021/09/18 03:21:58;;;;;;;5.18;4.05;;;17.00;99.90;;;;;;6183461;23;20024;-75
2021/09/18 03:24:25;;;;;;;8.95;4.60;;;17.00;99.90;;;;;;6182732;23;20036;-76
2021/09/18 03:26:52;;;;;;;9.95;5.15;;;17.00;99.90;;;;;;6183416;23;20119;-76
2021/09/18 03:29:19;;;;;;;9.55;5.60;;;17.00;99.90;;;;;;6182943;23;20393;-76
2021/09/18 03:31:46;;;;;;;6.60;4.95;;;16.90;99.90;;;;;;6183142;23;20450;-75
2021/09/18 03:34:13;;;;;;;10.98;5.40;;;16.90;99.90;;;;;;6181742;23;20040;-76
2021/09/18 03:36:40;;;;;;;9.43;5.53;;;16.90;99.90;;;;;;6183286;23;20016;-76
2021/09/18 03:39:07;;;;;;;9.77;4.82;;;16.90;99.90;;;;;;6182446;23;20125;-76
2021/09/18 03:41:34;;;;;;;5.22;4.25;;;16.90;99.90;;;;;;6183423;23;20028;-76
2021/09/18 03:44:01;;;;;;;6.28;4.40;;;16.80;99.90;;;;;;6183305;23;20029;-76
2021/09/18 03:46:28;;;;;;;8.75;4.93;;;16.90;99.90;;;;;;6181987;23;20029;-75
2021/09/18 03:48:55;;;;;;;6.95;4.60;;;16.90;99.90;;;;;;6183124;23;20028;-76
2021/09/18 03:51:22;;;;;;;11.77;5.03;;;16.90;99.90;;;;;;6182556;23;20017;-76
2021/09/18 03:53:49;;;;;;;6.95;4.88;;;16.90;99.90;;;;;;6183081;23;20016;-76
2021/09/18 03:56:16;;;;;;;5.75;4.50;;;16.80;99.90;;;;;;6182354;23;20020;-76
2021/09/18 03:58:43;;;;;;;8.18;5.10;;;16.80;99.90;;;;;;6183364;23;20024;-75
2021/09/18 04:01:10;;;;;;;9.50;5.05;;;16.80;99.90;;;;;;6181579;23;20041;-76
2021/09/18 04:03:37;;;;;;;10.38;5.18;;;16.90;99.90;;;;;;6183098;23;20021;-76
2021/09/18 04:06:05;;;;;;;8.90;5.63;;;16.90;99.90;;;;;;6181932;23;20112;-76
2021/09/18 04:08:31;;;;;;;6.95;5.15;;;16.80;99.90;;;;;;6183163;23;20027;-76
2021/09/18 04:10:58;;;;;;;9.25;5.32;;;16.80;99.90;;;;;;6182970;23;20016;-75
2021/09/18 04:13:25;;;;;;;8.10;5.68;;;16.80;99.90;;;;;;6181982;23;20021;-76
2021/09/18 04:15:52;;;;;;;10.15;5.18;;;16.80;99.90;;;;;;6182470;23;20493;-76
2021/09/18 04:18:20;;;;;;;7.38;5.10;;;16.80;99.90;;;;;;6182219;23;20088;-76
2021/09/18 04:20:46;;;;;;;5.85;5.07;;;16.80;99.90;;;;;;6183159;23;20028;-76
2021/09/18 04:23:14;;;;;;;10.45;5.50;;;16.80;99.90;;;;;;6181760;23;20017;-75
2021/09/18 04:25:41;;;;;;;8.02;5.45;;;16.70;99.90;;;;;;6182724;23;20083;-76
2021/09/18 04:28:08;;;;;;;9.50;6.82;;;16.70;99.90;;;;;;6182256;23;20092;-76
2021/09/18 04:30:35;;;;;;;12.82;7.03;;;16.70;99.90;;;;;;6183098;23;20021;-76
2021/09/18 04:33:02;;;;;;;9.00;6.20;;;16.60;99.90;;;;;;6182792;23;20020;-76
2021/09/18 04:35:29;;;;;;;9.18;5.25;;;16.60;99.90;;;;;;6181804;23;20457;-76
2021/09/18 04:37:56;;;;;;;11.18;5.80;;;16.60;99.90;;;;;;6182804;23;20442;-76
2021/09/18 04:40:23;;;;;;;8.70;5.57;;;16.60;99.90;;;;;;6182033;23;20021;-75
2021/09/18 04:42:50;;;;;;;8.48;5.70;;;16.50;99.90;;;;;;6182894;23;20021;-76
2021/09/18 04:45:17;;;;;;;7.57;5.25;;;16.50;99.90;;;;;;6181730;23;20031;-76
2021/09/18 04:47:44;;;;;;;8.30;5.22;;;16.50;99.90;;;;;;6182833;23;20092;-75
2021/09/18 04:50:12;;;;;;;7.13;5.22;;;16.50;99.90;;;;;;6181980;23;20029;-75
2021/09/18 04:52:38;;;;;;;11.05;5.18;;;16.50;99.90;;;;;;6182750;23;20075;-75
2021/09/18 04:55:06;;;;;;;11.10;5.35;;;16.50;99.90;;;;;;6181865;23;20326;-75
2021/09/18 04:57:34;;;;;;;10.10;5.40;;;16.50;99.90;;;;;;6182840;23;20473;-75
2021/09/18 05:00:00;;;;;;;7.72;5.63;;;16.50;99.90;;;;;;6182832;23;20021;-76
2021/09/18 05:02:28;;;;;;;7.80;5.88;;;16.50;99.90;;;;;;6181587;23;20100;-76
2021/09/18 05:04:55;;;;;;;12.05;5.85;;;16.50;99.90;;;;;;6182621;23;20021;-76
2021/09/18 05:07:22;;;;;;;15.13;6.32;;;16.50;99.90;;;;;;6182034;23;20017;-76
2021/09/18 05:09:50;;;;;;;11.68;6.18;;;16.50;99.90;;;;;;6182742;23;20018;-76
2021/09/18 05:12:17;;;;;;;11.73;6.25;;;16.50;99.90;;;;;;6182017;23;20028;-76
2021/09/18 05:14:44;;;;;;;12.57;6.60;;;16.40;99.90;;;;;;6182632;23;20421;-76
2021/09/18 05:17:11;;;;;;;14.88;6.20;;;16.40;99.90;;;;;;6181741;23;20017;-76
2021/09/18 05:19:38;;;;;;;10.70;6.28;;;16.40;99.90;;;;;;6182614;23;20025;-76
2021/09/18 05:22:05;;;;;;;12.32;6.90;;;16.40;99.90;;;;;;6181741;23;20025;-76
2021/09/18 05:24:32;;;;;;;10.48;6.85;;;16.40;99.90;;;;;;6182681;23;20326;-75
2021/09/18 05:26:59;;;;;;;12.18;6.55;;;16.40;99.90;;;;;;6182382;23;20017;-76
2021/09/18 05:29:26;;;;;;;11.57;6.53;;;16.40;99.90;;;;;;6181602;23;20391;-76
2021/09/18 05:31:53;;;;;;;14.15;7.25;;;16.40;99.90;;;;;;6182099;23;20017;-77
2021/09/18 05:34:20;;;;;;;12.52;6.65;;;16.40;99.90;;;;;;6181474;23;20350;-76
2021/09/18 05:36:47;;;;;;;16.67;7.28;;;16.40;99.90;;;;;;6182486;23;20453;-76
2021/09/18 05:39:14;;;;;;;14.10;7.30;;;16.30;99.90;;;;;;6181652;23;20017;-75
2021/09/18 05:41:41;;;;;;;14.57;7.60;;;16.40;99.90;;;;;;6182461;23;20017;-76
2021/09/18 05:44:10;;;;;;;16.38;7.30;;;16.40;99.90;;;;;;6181757;23;20024;-76
2021/09/18 05:46:38;;;;;;;14.38;7.38;;;16.40;99.90;;;;;;6182338;23;20441;-76
2021/09/18 05:49:05;;;;;;;10.43;7.15;;;16.40;99.90;;;;;;6181443;23;20027;-76
2021/09/18 05:51:32;;;;;;;13.30;7.47;;;16.40;99.90;;;;;;6182295;23;20013;-75
2021/09/18 05:53:59;;;;;;;14.05;7.10;;;16.40;99.90;;;;;;6182530;23;20036;-75
2021/09/18 05:56:26;;;;;;;16.48;6.75;;;16.40;99.90;;;;;;6181426;23;20037;-75
2021/09/18 05:59:00;;;;;;;10.52;6.97;;;16.40;99.90;;;;;;6183928;23;20025;-76
2021/09/18 06:01:27;;;;;;;12.73;6.15;;;16.40;99.90;;;;;;6182777;23;20438;-75
2021/09/18 06:03:55;;;;;;;13.07;6.28;;;16.30;99.90;;;;;;6183827;23;20080;-76
2021/09/18 06:06:22;;;;;;;12.10;6.20;;;16.40;99.90;;;;;;6183254;23;20021;-76
2021/09/18 06:08:49;;;;;;;10.07;5.65;;;16.40;99.90;;;;;;6183352;23;20448;-76
2021/09/18 06:15:04;;;;;;;10.47;5.40;;;16.40;99.90;;;;;;6183725;23;20063;-75
2021/09/18 06:17:31;;;;;;;10.40;6.05;;;16.40;99.90;;;;;;6183280;23;20108;-76
2021/09/18 06:19:58;;;;;;;9.30;5.65;;;16.40;99.90;;;;;;6183421;23;20497;-75
2021/09/18 06:22:25;;;;;;;9.73;5.63;;;16.40;99.90;;;;;;6183118;23;20021;-75
2021/09/18 06:24:52;;;;;;;9.52;5.53;;;16.40;99.90;;;;;;6183531;23;20051;-75
2021/09/18 06:27:19;;;;;;;11.10;5.30;;;16.40;99.90;;;;;;6182857;23;20021;-76
2021/09/18 06:29:46;;;;;;;8.95;5.40;;;16.40;99.90;;;;;;6184319;23;20088;-76
2021/09/18 06:32:13;;;;;;;9.55;5.60;;;16.50;99.90;;;;;;6182625;23;20017;-75
2021/09/18 06:34:40;;;;;;;10.00;5.25;;;16.40;99.90;;;;;;6183692;23;20446;-75
2021/09/18 06:37:07;;;;;;;9.93;5.40;;;16.40;99.90;;;;;;6182957;23;20021;-75
2021/09/18 06:39:35;;;;;;;9.27;5.18;;;16.40;99.90;;;;;;6183534;23;20100;-75
2021/09/18 06:42:03;;;;;;;9.45;5.70;;;16.40;99.90;;;;;;6183970;23;20089;-76
2021/09/18 06:44:30;;;;;;;10.40;5.55;;;16.40;99.90;;;;;;6182757;23;20021;-75
2021/09/18 06:46:57;;;;;;;10.95;5.68;;;16.50;99.90;;;;;;6183788;23;20025;-76
2021/09/18 06:49:24;;;;;;;9.25;5.38;;;16.50;99.90;;;;;;6182970;23;20052;-76
2021/09/18 06:51:51;;;;;;;7.95;5.05;;;16.50;99.90;;;;;;6184075;23;20108;-76
2021/09/18 06:54:18;;;;;;;10.35;5.82;;;16.50;99.90;;;;;;6182817;23;20084;-75
2021/09/18 06:56:45;;;;;;;12.05;6.68;;;16.50;99.90;;;;;;6183707;23;20017;-75
2021/09/18 06:59:12;;;;;;;11.30;5.60;;;16.50;99.90;;;;;;6183266;23;20017;-76
2021/09/18 07:01:39;;;;;;;11.07;6.50;;;16.40;99.90;;;;;;6183512;23;20035;-76
2021/09/18 07:04:06;;;;;;;11.38;6.20;;;16.40;99.90;;;;;;6181986;23;20426;-76
2021/09/18 07:06:33;;;;;;;16.38;6.63;;;16.40;99.90;;;;;;6183590;23;20080;-75
2021/09/18 07:09:01;;;;;;;10.05;5.95;;;16.40;99.90;;;;;;6183729;23;20450;-75
2021/09/18 07:11:28;;;;;;;8.38;5.35;;;16.50;99.90;;;;;;6182393;23;20104;-75
2021/09/18 07:13:55;;;;;;;11.80;6.75;;;16.40;99.90;;;;;;6183589;23;20017;-71
2021/09/18 07:16:21;;;;;;;10.90;6.47;;;16.40;99.90;;;;;;6182467;23;20029;-76
2021/09/18 07:18:49;;;;;;;9.80;6.47;;;16.50;99.90;;;;;;6183291;23;20024;-76
2021/09/18 07:21:16;;;;;;;10.70;5.90;;;16.50;99.90;;;;;;6180891;23;20464;-76
2021/09/18 07:23:43;;;;;;;10.98;6.40;;;16.50;99.90;;;;;;6181175;23;20405;-76
2021/09/18 07:26:11;;;;;;;11.27;6.65;;;16.50;99.90;;;;;;6179838;23;20311;-76
2021/09/18 07:28:38;;;;;;;9.57;6.73;;;16.60;99.90;;;;;;6180935;23;20021;-76
2021/09/18 07:31:05;;;;;;;11.88;6.82;;;16.60;99.90;;;;;;6179992;23;20021;-76
2021/09/18 07:33:32;;;;;;;12.13;6.35;;;16.60;99.90;;;;;;6180714;23;20092;-75
2021/09/18 07:35:59;;;;;;;11.85;6.78;;;16.70;99.90;;;;;;6180932;23;20045;-76
2021/09/18 07:38:26;;;;;;;11.43;6.53;;;16.70;99.90;;;;;;6180347;23;20096;-76
2021/09/18 07:40:55;;;;;;;13.20;8.15;;;16.80;99.90;;;;;;6180851;23;20063;-76
2021/09/18 07:43:23;;;;;;;12.43;7.30;;;16.80;99.90;;;;;;6179869;23;20035;-75
2021/09/18 07:45:50;;;;;;;12.17;7.33;;;16.90;99.90;;;;;;6180566;23;20462;-75
2021/09/18 07:48:17;;;;;;;16.38;7.65;;;16.90;99.90;;;;;;6180044;23;20252;-75
2021/09/18 07:50:44;;;;;;;10.50;7.65;;;16.90;99.90;;;;;;6180334;23;20350;-75
2021/09/18 07:53:11;;;;;;;11.00;7.50;;;17.00;99.90;;;;;;6180083;23;20024;-76
2021/09/18 07:55:40;;;;;;;12.15;7.25;;;17.00;99.90;;;;;;6180211;23;20025;-75
2021/09/18 07:58:13;;;;;;;10.40;7.57;;;17.10;99.90;;;;;;6179734;23;20032;-75
2021/09/18 08:00:40;;;;;;;8.35;6.70;;;17.10;99.90;;;;;;6180193;23;20017;-75
2021/09/18 08:03:07;;;;;;;13.13;7.18;;;17.20;99.90;;;;;;6179530;23;20045;-74
2021/09/18 08:05:34;;;;;;;12.05;7.28;;;17.20;99.90;;;;;;6180198;23;20513;-75
2021/09/18 08:08:02;;;;;;;9.32;6.82;;;17.30;99.90;;;;;;6180725;23;20137;-75
2021/09/18 08:10:32;;;;;;;9.80;6.75;;;17.40;99.90;;;;;;6170707;23;20021;-75
2021/09/18 08:13:00;;;;;;;7.68;6.68;;;17.50;99.90;;;;;;6180470;23;20025;-76
2021/09/18 08:15:27;;;;;;;6.27;5.10;;;17.60;99.90;;;;;;6178977;23;20408;-75
2021/09/18 08:17:54;;;;;;;9.07;5.80;;;17.60;99.90;;;;;;6180140;23;20028;-75
2021/09/18 08:20:21;;;;;;;6.38;5.22;;;17.70;99.90;;;;;;6178988;23;20013;-76
2021/09/18 08:22:48;;;;;;;6.50;4.20;;;17.90;99.90;;;;;;6180465;23;20029;-76
2021/09/18 08:25:16;;;;;;;6.68;4.13;;;18.00;99.90;;;;;;6179270;23;20024;-75
2021/09/18 08:27:43;;;;;;;7.07;4.97;;;18.20;99.90;;;;;;6179866;23;20021;-75
2021/09/18 08:30:11;;;;;;;4.40;3.65;;;18.30;99.90;;;;;;6178931;23;20013;-75
2021/09/18 08:32:39;;;;;;;5.07;4.10;;;18.40;99.90;;;;;;6181166;23;20036;-75
2021/09/18 08:35:07;;;;;;;5.38;4.13;;;18.50;99.90;;;;;;6179402;23;20347;-76
2021/09/18 08:37:34;;;;;;;5.07;3.80;;;18.60;99.90;;;;;;6180236;23;20025;-75
2021/09/18 08:40:03;;;;;;;3.80;3.40;;;18.60;99.90;;;;;;6180250;23;20021;-75
2021/09/18 08:42:30;;;;;;;5.32;3.42;;;18.60;99.90;;;;;;6179137;23;20051;-75
2021/09/18 08:44:57;;;;;;;4.20;3.60;;;18.60;99.90;;;;;;6180347;23;20020;-74
2021/09/18 08:47:24;;;;;;;3.30;2.97;;;18.60;99.90;;;;;;6179556;23;20128;-75
2021/09/18 08:49:51;;;;;;;4.72;3.10;;;18.70;99.90;;;;;;6180294;23;20031;-75
2021/09/18 08:52:18;;;;;;;4.57;2.95;;;18.80;99.90;;;;;;6179610;23;20041;-74
2021/09/18 08:54:46;;;;;;;3.47;2.65;;;18.80;99.90;;;;;;6179982;23;20497;-75
2021/09/18 08:57:13;;;;;;;3.00;2.33;;;18.80;99.90;;;;;;6178874;23;20021;-74
2021/09/18 08:59:41;;;;;;;3.38;1.85;;;18.90;99.90;;;;;;6180707;23;20357;-75
2021/09/18 09:02:11;;;;;;;2.42;1.67;;;18.80;99.90;;;;;;6179073;23;20021;-75
2021/09/18 09:04:39;;;;;;;2.55;1.80;;;18.80;99.90;;;;;;6180297;23;20028;-75
2021/09/18 09:07:08;;;;;;;2.30;1.50;;;18.80;99.90;;;;;;6179223;23;20032;-75
2021/09/18 09:09:52;;;;;;;2.63;1.60;;;18.70;99.90;;;;;;6179862;23;20371;-76
2021/09/18 09:12:25;;;;;;;3.70;2.28;;;18.80;99.90;;;;;;6178336;23;20306;-76
2021/09/18 09:14:55;;;;;;;4.35;2.13;;;18.80;99.90;;;;;;6178123;23;20021;-76
2021/09/18 09:17:28;;;;;;;5.00;2.20;;;18.90;99.90;;;;;;6178597;23;20458;-76
2021/09/18 09:19:56;;;;;;;3.05;2.42;;;18.90;99.90;;;;;;6179333;23;20311;-75
2021/09/18 09:22:47;;;;;;;3.95;1.92;;;18.90;99.90;;;;;;6179220;23;20040;-74
2021/09/18 09:25:34;;;;;;;4.00;1.80;;;18.90;99.90;;;;;;6171102;23;20058;-73
2021/09/18 09:28:35;;;;;;;2.90;1.45;;;18.90;99.90;;;;;;6182518;23;20029;-75
2021/09/18 09:31:27;;;;;;;2.47;1.67;;;19.00;99.90;;;;;;6181630;23;20025;-74
2021/09/18 09:34:14;;;;;;;1.55;1.30;;;19.00;99.90;;;;;;6183074;23;20083;-75
2021/09/18 09:36:52;;;;;;;1.58;1.48;;;19.10;99.90;;;;;;6183906;23;20039;-75
2021/09/18 09:39:23;;;;;;;1.45;1.33;;;19.10;99.90;;;;;;6183612;23;20017;-75
2021/09/18 09:41:53;;;;;;;2.13;1.42;;;19.10;99.90;;;;;;6184741;23;20437;-75
2021/09/18 09:44:24;;;;;;;1.70;1.60;;;19.20;99.90;;;;;;6183453;23;20434;-75
2021/09/18 09:47:22;;;;;;;1.35;1.25;;;19.30;99.90;;;;;;6184220;23;20024;-75
2021/09/18 09:49:59;;;;;;;2.80;1.55;;;19.30;99.90;;;;;;6182209;23;20430;-75
2021/09/18 09:52:27;;;;;;;6.88;2.30;;;19.30;99.90;;;;;;6183453;23;20047;-75
2021/09/18 09:55:11;;;;;;;2.50;1.65;;;19.40;99.90;;;;;;6184212;23;20394;-75
2021/09/18 09:57:39;;;;;;;1.92;1.60;;;19.50;99.90;;;;;;6182755;23;20076;-75
2021/09/18 10:00:08;;;;;;;4.03;1.40;;;19.60;99.90;;;;;;6183576;23;20024;-76
2021/09/18 10:02:37;;;;;;;2.67;1.50;;;19.60;99.90;;;;;;6184073;23;20051;-75
2021/09/18 10:05:06;;;;;;;3.30;1.30;;;19.50;99.90;;;;;;6183462;23;20029;-75
2021/09/18 10:07:35;;;;;;;1.85;1.45;;;19.50;99.90;;;;;;6184172;23;20457;-75
2021/09/18 10:10:04;;;;;;;2.20;1.60;;;19.50;99.90;;;;;;6184194;23;20045;-75
2021/09/18 10:12:33;;;;;;;3.42;1.98;;;19.60;99.90;;;;;;6183192;23;20047;-75
2021/09/18 10:15:03;;;;;;;2.15;1.83;;;19.70;99.90;;;;;;6184134;23;20088;-75
2021/09/18 10:17:34;;;;;;;2.88;2.03;;;19.80;99.90;;;;;;6183444;23;20044;-75
2021/09/18 10:20:05;;;;;;;1.90;1.70;;;19.80;99.90;;;;;;6184010;23;20438;-75
2021/09/18 10:25:24;;;;;;;2.17;1.95;;;19.90;99.90;;;;;;6184798;23;20048;-75
2021/09/18 10:28:21;;;;;;;1.75;1.50;;;20.10;99.90;;;;;;6183518;23;20442;-75
2021/09/18 10:30:53;;;;;;;3.90;1.43;;;20.30;99.90;;;;;;6159564;23;20036;-75
2021/09/18 10:33:38;;;;;;;1.10;1.00;;;20.30;99.90;;;;;;6183008;23;20396;-75
2021/09/18 10:36:18;;;;;;;1.73;1.15;;;20.30;99.90;;;;;;6183050;23;20017;-75
2021/09/18 10:38:51;;;;;;;1.23;1.08;;;20.20;99.90;;;;;;6184052;23;20017;-75
2021/09/18 10:41:24;;;;;;;1.08;0.98;;;20.10;99.90;;;;;;6182445;23;20025;-75
2021/09/18 10:43:51;;;;;;;2.97;1.05;;;20.20;99.90;;;;;;6183853;23;20021;-75
2021/09/18 10:46:47;;;;;;;2.60;1.20;;;20.20;99.90;;;;;;6182503;23;20031;-75
2021/09/18 10:52:18;;;;;;;2.35;1.00;;;20.30;99.90;;;;;;6185346;23;20021;-75
2021/09/18 10:55:07;;;;;;;2.67;1.00;;;20.40;99.90;;;;;;6182613;23;20021;-75
2021/09/18 10:57:38;;;;;;;1.92;1.10;;;20.50;99.90;;;;;;6182164;23;20036;-75
2021/09/18 11:00:08;;;;;;;2.08;1.20;;;20.60;99.90;;;;;;6182465;23;20020;-76
2021/09/18 11:02:35;;;;;;;0.95;0.75;;;20.60;99.90;;;;;;6183627;23;20033;-75
2021/09/18 11:05:18;;;;;;;1.17;0.70;;;20.60;99.90;;;;;;6183516;23;20013;-75
2021/09/18 11:07:48;;;;;;;1.55;0.90;;;20.60;99.90;;;;;;6182984;23;20021;-75
2021/09/18 11:10:21;;;;;;;1.13;0.50;;;20.60;99.90;;;;;;6182462;23;20108;-75
2021/09/18 11:13:07;;;;;;;2.15;0.73;;;20.70;99.90;;;;;;6183197;23;20100;-75
2021/09/18 11:15:54;;;;;;;2.25;1.00;;;20.80;99.90;;;;;;6180964;23;20452;-75
2021/09/18 11:18:41;;;;;;;1.13;0.70;;;21.00;99.90;;;;;;6181093;23;20017;-75
2021/09/18 11:21:18;;;;;;;0.80;0.70;;;21.20;99.90;;;;;;6182181;23;20338;-76
2021/09/18 11:23:50;;;;;;;2.03;0.93;;;21.30;99.90;;;;;;6183602;23;20500;-75
2021/09/18 11:26:41;;;;;;;1.50;0.60;;;21.40;99.90;;;;;;6180974;23;20322;-76
2021/09/18 11:29:27;;;;;;;1.05;0.50;;;21.50;99.90;;;;;;6155498;23;20028;-77
2021/09/18 11:32:21;;;;;;;0.47;0.40;;;21.70;99.90;;;;;;6040610;23;20045;-76
2021/09/18 11:42:11;;;;;;;1.88;0.50;;;22.30;99.90;;;;;;5980457;23;20333;-76
2021/09/18 11:45:43;;;;;;;1.02;0.40;;;22.40;99.90;;;;;;5889476;24;20039;-77
2021/09/18 11:48:20;;;;;;;2.00;0.50;;;22.50;99.90;;;;;;5846744;24;20080;-76
2021/09/18 11:51:19;;;;;;;0.45;0.40;;;22.60;99.90;;;;;;5806538;24;20030;-76
2021/09/18 11:54:35;;;;;;;;;;;;;;;;;;;;;
2021/09/18 11:57:17;;;;;;;1.63;0.60;;;22.60;99.90;;;;;;5737162;24;20034;-76
2021/09/18 11:59:53;;;;;;;1.17;0.70;;;22.60;99.90;;;;;;5742538;24;20070;-77
2021/09/18 12:02:55;;;;;;;0.43;0.30;;;22.60;99.90;;;;;;5745154;24;20025;-77
2021/09/18 12:05:40;;;;;;;1.35;0.38;;;22.70;99.90;;;;;;5821046;24;20037;-76
2021/09/18 12:08:23;;;;;;;0.65;0.30;;;22.70;99.90;;;;;;5888861;24;20020;-77
2021/09/18 12:11:09;;;;;;;0.47;0.40;;;22.70;99.90;;;;;;5920609;24;20104;-76
2021/09/18 12:13:55;;;;;;;0.50;0.50;;;22.80;99.90;;;;;;5908975;24;20024;-77
2021/09/18 12:16:35;;;;;;;1.70;0.30;;;22.90;99.90;;;;;;5846256;24;20104;-77
2021/09/18 12:19:13;;;;;;;1.08;0.40;;;22.90;99.90;;;;;;5891876;24;20032;-77
2021/09/18 12:21:56;;;;;;;;;;;;;;;;;;;;;
2021/09/18 12:24:50;;;;;;;0.20;0.20;;;22.90;99.90;;;;;;5975078;24;20084;-77
2021/09/18 12:27:54;;;;;;;0.20;0.13;;;22.90;99.90;;;;;;5944369;24;20024;-77
2021/09/18 12:30:36;;;;;;;0.20;0.20;;;22.90;99.90;;;;;;5935225;24;20054;-76
2021/09/18 12:33:33;;;;;;;0.32;0.20;;;23.00;99.90;;;;;;5993554;23;20457;-76
2021/09/18 12:36:11;;;;;;;0.47;0.30;;;23.00;99.90;;;;;;6006184;23;20028;-76
2021/09/18 12:38:44;;;;;;;0.65;0.50;;;22.90;99.90;;;;;;5993551;23;20050;-77
2021/09/18 12:41:33;;;;;;;1.92;0.50;;;22.80;99.90;;;;;;5905717;24;20029;-77
2021/09/18 12:44:42;;;;;;;2.00;0.60;;;22.80;99.90;;;;;;5885123;24;20029;-76
2021/09/18 12:48:34;;;;;;;;;;;;;;;;;;;;;
2021/09/18 12:51:19;;;;;;;5.50;0.90;;;22.50;99.90;;;;;;5683189;24;20052;-74
2021/09/18 12:54:49;;;;;;;1.58;0.50;;;22.40;99.90;;;;;;5730964;24;20020;-78
2021/09/18 12:57:17;;;;;;;1.13;0.52;;;22.40;99.90;;;;;;5650450;25;20036;-76
2021/09/18 12:59:45;;;;;;;2.50;0.47;;;22.30;99.90;;;;;;5681742;25;20028;-74
2021/09/18 13:02:11;;;;;;;0.65;0.50;;;22.20;99.90;;;;;;5711405;25;20448;-74
2021/09/18 13:04:43;;;;;;;1.70;0.50;;;22.20;99.90;;;;;;5712399;25;20025;-73
2021/09/18 13:07:10;;;;;;;0.50;0.40;;;22.20;99.90;;;;;;5711764;25;20427;-74
2021/09/18 13:09:37;;;;;;;1.13;0.35;;;22.20;99.90;;;;;;5714096;25;20024;-74
2021/09/18 13:12:11;;;;;;;0.82;0.40;;;22.20;99.90;;;;;;5692393;25;20082;-75
2021/09/18 13:14:50;;;;;;;1.80;0.50;;;22.30;99.90;;;;;;5713259;25;20028;-75
2021/09/18 13:17:18;;;;;;;1.67;0.52;;;22.40;99.90;;;;;;5731946;24;20031;-74
2021/09/18 13:20:00;;;;;;;1.38;0.50;;;22.50;99.90;;;;;;5765104;24;20077;-75
2021/09/18 13:22:30;;;;;;;0.65;0.40;;;22.70;99.90;;;;;;5780297;24;20072;-74
2021/09/18 13:24:57;;;;;;;2.10;0.50;;;22.70;99.90;;;;;;5790961;24;20108;-74
2021/09/18 13:27:25;;;;;;;1.98;0.65;;;22.60;99.90;;;;;;5804187;24;20017;-75